Time;durP1;ratioP1;P1;durP2;ratioP2;P2;SDS_P1;SDS_P2;PMS_P1;PMS_P2;Temp;Humidity;BMP_temperature;BMP_pressure;BME280_temperature;BME280_humidity;BME280_pressure;Samples;Min_cycle;Max_cycle;Signal;HPM_P1;HPM_P2
2023/05/21 00:00:22;;;;;;;14.25;9.43;;;12.30;99.90;;;-148.53;100.00;63986.66;5052020;28;20033;-79
2023/05/21 00:02:48;;;;;;;13.57;9.18;;;12.30;99.90;;;-148.53;100.00;63986.66;5051812;28;20455;-79
2023/05/21 00:05:15;;;;;;;12.57;8.60;;;12.20;99.90;;;-148.53;100.00;63986.66;5051794;28;20564;-79
2023/05/21 00:07:41;;;;;;;10.35;8.85;;;12.20;99.90;;;-148.53;100.00;63986.66;5056381;28;20091;-79
2023/05/21 00:10:07;;;;;;;12.15;9.63;;;12.20;99.90;;;-148.53;100.00;63986.66;5051573;28;20045;-79
2023/05/21 00:12:33;;;;;;;11.30;8.80;;;12.10;99.90;;;-148.53;100.00;63986.66;5051801;28;20040;-78
2023/05/21 00:15:00;;;;;;;10.63;8.35;;;12.10;99.90;;;-148.53;100.00;63986.66;5051552;28;20052;-79
2023/05/21 00:17:27;;;;;;;13.30;9.30;;;12.00;99.90;;;-148.53;100.00;63986.66;5052331;28;20044;-78
2023/05/21 00:19:53;;;;;;;11.95;9.13;;;11.90;99.90;;;-148.53;100.00;63986.66;5053179;28;20040;-78
2023/05/21 00:22:19;;;;;;;13.57;10.20;;;11.90;99.90;;;-148.53;100.00;63986.66;5049584;28;20112;-78
2023/05/21 00:24:44;;;;;;;13.38;9.45;;;11.90;99.90;;;-148.53;100.00;63986.66;5056287;28;20039;-79
2023/05/21 00:27:12;;;;;;;11.43;8.90;;;11.80;99.90;;;-148.53;100.00;63986.66;5056370;28;20072;-79
2023/05/21 00:29:38;;;;;;;12.30;9.70;;;11.80;99.90;;;-148.53;100.00;63986.66;5050646;28;20063;-78
2023/05/21 00:32:04;;;;;;;16.90;10.30;;;11.80;99.90;;;-148.53;100.00;63986.66;5050107;28;20047;-78
2023/05/21 00:34:30;;;;;;;13.90;10.00;;;11.70;99.90;;;-148.53;100.00;63986.66;5051068;28;20425;-78
2023/05/21 00:36:56;;;;;;;12.50;9.65;;;11.80;99.90;;;-148.53;100.00;63986.66;5051501;28;20047;-79
2023/05/21 00:39:23;;;;;;;13.27;9.38;;;11.70;99.90;;;-148.53;100.00;63986.66;5049709;28;20064;-79
2023/05/21 00:41:49;;;;;;;13.15;10.25;;;11.70;99.90;;;-148.53;100.00;63986.66;5066754;28;20066;-78
2023/05/21 00:44:17;;;;;;;13.90;9.48;;;11.70;99.90;;;-148.53;100.00;63986.66;5055724;28;20101;-79
2023/05/21 00:46:43;;;;;;;14.70;9.85;;;11.60;99.90;;;-148.53;100.00;63986.66;5066919;28;20064;-78
2023/05/21 00:49:11;;;;;;;13.25;9.35;;;11.60;99.90;;;-148.53;100.00;63986.66;5052663;28;20041;-78
2023/05/21 00:51:36;;;;;;;12.70;9.60;;;11.50;99.90;;;-148.53;100.00;63986.66;5051601;28;20241;-78
2023/05/21 00:54:03;;;;;;;16.98;9.98;;;11.50;99.90;;;-148.53;100.00;63986.66;5053845;28;20286;-78
2023/05/21 00:56:28;;;;;;;12.27;9.90;;;11.40;99.90;;;-148.53;100.00;63986.66;5053471;28;20066;-78
2023/05/21 00:58:56;;;;;;;15.70;10.07;;;11.40;99.90;;;-148.53;100.00;63986.66;5046592;28;20116;-78
2023/05/21 01:01:24;;;;;;;14.27;10.25;;;11.30;99.90;;;-148.53;100.00;63986.66;5053969;28;20044;-78
2023/05/21 01:03:56;;;;;;;15.27;10.45;;;11.30;99.90;;;-148.53;100.00;63986.66;5054857;28;20402;-79
2023/05/21 01:06:22;;;;;;;13.90;9.65;;;11.30;99.90;;;-148.53;100.00;63986.66;5058620;28;20116;-79
2023/05/21 01:08:49;;;;;;;12.85;10.23;;;11.20;99.90;;;-148.53;100.00;63986.66;5057077;28;20029;-79
2023/05/21 01:11:17;;;;;;;16.75;10.10;;;11.20;99.90;;;-148.53;100.00;63986.66;5054219;28;20037;-79
2023/05/21 01:13:45;;;;;;;14.57;10.02;;;11.20;99.90;;;-148.53;100.00;63986.66;5065001;28;20143;-79
2023/05/21 01:16:12;;;;;;;14.88;10.10;;;11.30;99.90;;;-148.53;100.00;63986.66;5055028;28;20039;-79
2023/05/21 01:18:38;;;;;;;14.93;10.13;;;11.30;99.90;;;-148.53;100.00;63986.66;5052918;28;20041;-79
2023/05/21 01:21:06;;;;;;;13.63;9.57;;;11.30;99.90;;;-148.53;100.00;63986.66;5064924;28;20047;-80
2023/05/21 01:23:32;;;;;;;14.68;10.98;;;11.30;99.90;;;-148.53;100.00;63986.66;5052907;28;20036;-79
2023/05/21 01:25:58;;;;;;;11.68;9.55;;;11.30;99.90;;;-148.53;100.00;63986.66;5064615;28;20037;-78
2023/05/21 01:28:24;;;;;;;13.07;9.50;;;11.30;99.90;;;-148.53;100.00;63986.66;5058281;28;20033;-79
2023/05/21 01:30:50;;;;;;;14.00;9.77;;;11.30;99.90;;;-148.53;100.00;63986.66;5052978;28;20049;-79
2023/05/21 01:33:40;;;;;;;13.38;9.68;;;11.30;99.90;;;-148.53;100.00;63986.66;5053000;28;20037;-79
2023/05/21 01:36:25;;;;;;;11.48;9.27;;;11.20;99.90;;;-148.53;100.00;63986.66;5058381;28;20033;-79
2023/05/21 01:39:08;;;;;;;13.57;9.40;;;11.10;99.90;;;-148.53;100.00;63986.66;5068258;28;20037;-78
2023/05/21 01:41:42;;;;;;;13.50;9.73;;;11.10;99.90;;;-148.53;100.00;63986.66;5060984;28;20037;-79
2023/05/21 01:44:09;;;;;;;12.77;9.15;;;11.10;99.90;;;-148.53;100.00;63986.66;5053488;28;20032;-79
2023/05/21 01:46:37;;;;;;;14.00;9.87;;;11.00;99.90;;;-148.53;100.00;63986.66;5053688;28;20044;-79
2023/05/21 01:49:05;;;;;;;13.07;9.48;;;11.00;99.90;;;-148.53;100.00;63986.66;5059709;28;20309;-78
2023/05/21 01:51:32;;;;;;;15.32;10.40;;;10.80;99.90;;;-148.53;100.00;63986.66;5053514;28;20061;-78
2023/05/21 01:53:58;;;;;;;14.23;10.60;;;10.90;99.90;;;-148.53;100.00;63986.66;5054060;28;20520;-78
2023/05/21 01:56:24;;;;;;;16.52;9.93;;;10.90;99.90;;;-148.53;100.00;63986.66;5056799;28;20041;-78
2023/05/21 01:58:51;;;;;;;13.63;9.60;;;11.00;99.90;;;-148.53;100.00;63986.66;5040441;28;20519;-78
2023/05/21 02:01:17;;;;;;;14.35;9.93;;;11.10;99.90;;;-148.53;100.00;63986.66;5052587;28;20029;-78
2023/05/21 02:03:42;;;;;;;13.65;9.65;;;11.10;99.90;;;-148.53;100.00;63986.66;5053011;28;20052;-79
2023/05/21 02:06:08;;;;;;;13.50;9.48;;;11.10;99.90;;;-148.53;100.00;63986.66;5067004;28;20071;-78
2023/05/21 02:08:34;;;;;;;11.82;9.35;;;11.10;99.90;;;-148.53;100.00;63986.66;5089970;28;20021;-78
2023/05/21 02:10:59;;;;;;;14.13;9.38;;;11.10;99.90;;;-148.53;100.00;63986.66;5041648;28;20048;-78
2023/05/21 02:13:25;;;;;;;13.40;9.48;;;11.20;99.90;;;-148.53;100.00;63986.66;5055951;28;20104;-78
2023/05/21 02:15:53;;;;;;;14.68;9.40;;;11.10;99.90;;;-148.53;100.00;63986.66;5056866;28;20059;-79
2023/05/21 02:18:20;;;;;;;14.45;9.18;;;11.10;99.90;;;-148.53;100.00;63986.66;5066361;28;20033;-79
2023/05/21 02:20:46;;;;;;;15.07;9.63;;;11.00;99.90;;;-148.53;100.00;63986.66;5056405;28;20033;-78
2023/05/21 02:23:12;;;;;;;12.65;9.00;;;11.00;99.90;;;-148.53;100.00;63986.66;5068909;28;20029;-78
2023/05/21 02:25:38;;;;;;;13.50;9.05;;;10.90;99.90;;;-148.53;100.00;63986.66;5056371;28;22167;-78
2023/05/21 02:28:03;;;;;;;12.32;9.00;;;10.80;99.90;;;-148.53;100.00;63986.66;5051336;28;20090;-78
2023/05/21 02:30:29;;;;;;;14.88;9.65;;;10.80;99.90;;;-148.53;100.00;63986.66;5051382;28;20049;-78
2023/05/21 02:32:57;;;;;;;12.90;9.15;;;10.80;99.90;;;-148.53;100.00;63986.66;5056625;28;20143;-79
2023/05/21 02:35:23;;;;;;;;;;;10.80;99.90;;;-148.53;100.00;63986.66;5051708;28;20040;-79
2023/05/21 02:37:49;;;;;;;12.57;9.30;;;10.80;99.90;;;-148.53;100.00;63986.66;5052708;28;20288;-78
2023/05/21 02:40:15;;;;;;;13.63;9.02;;;10.70;99.90;;;-148.53;100.00;63986.66;5053172;28;20036;-78
2023/05/21 02:42:40;;;;;;;11.55;8.75;;;10.60;99.90;;;-148.53;100.00;63986.66;5051301;28;20051;-79
2023/05/21 02:45:10;;;;;;;;;;;10.60;99.90;;;-148.53;100.00;63986.66;5045247;28;20122;-79
2023/05/21 02:47:37;;;;;;;12.55;9.23;;;10.60;99.90;;;-148.53;100.00;63986.66;5084998;28;20023;-78
2023/05/21 02:50:07;;;;;;;13.18;8.98;;;10.70;99.90;;;-148.53;100.00;63986.66;5051227;28;20449;-78
2023/05/21 02:52:35;;;;;;;12.82;9.25;;;10.80;99.90;;;-148.53;100.00;63986.66;5053359;28;20032;-78
2023/05/21 02:55:01;;;;;;;11.02;8.82;;;10.70;99.90;;;-148.53;100.00;63986.66;5055713;28;20033;-78
2023/05/21 02:57:27;;;;;;;14.63;9.38;;;10.60;99.90;;;-148.53;100.00;63986.66;5057999;28;20123;-79
2023/05/21 02:59:52;;;;;;;13.43;9.10;;;10.50;99.90;;;-148.53;100.00;63986.66;5052180;28;20029;-78
2023/05/21 03:02:18;;;;;;;13.52;8.73;;;10.30;99.90;;;-148.53;100.00;63986.66;5069324;28;20035;-78
2023/05/21 03:04:47;;;;;;;11.07;9.10;;;10.20;99.90;;;-148.53;100.00;63986.66;5068571;28;20091;-78
2023/05/21 03:07:16;;;;;;;12.40;8.60;;;10.00;99.90;;;-148.53;100.00;63986.66;5065221;28;20353;-79
2023/05/21 03:09:43;;;;;;;13.98;9.43;;;9.90;99.90;;;-148.53;100.00;63986.66;5070097;28;20086;-78
2023/05/21 03:12:09;;;;;;;11.55;8.77;;;9.80;99.90;;;-148.53;100.00;63986.66;5051768;28;20041;-78
2023/05/21 03:14:35;;;;;;;13.48;9.40;;;9.70;99.90;;;-148.53;100.00;63986.66;5050989;28;20117;-78
2023/05/21 03:17:04;;;;;;;12.95;9.48;;;9.50;99.90;;;-148.53;100.00;63986.66;5054857;28;20112;-79
2023/05/21 03:19:34;;;;;;;14.43;9.00;;;9.40;99.90;;;-148.53;100.00;63986.66;5055696;28;20041;-78
2023/05/21 03:22:04;;;;;;;13.95;9.23;;;9.30;99.90;;;-148.53;100.00;63986.66;5089475;28;20043;-77
2023/05/21 03:24:33;;;;;;;13.73;9.88;;;9.20;99.90;;;-148.53;100.00;63986.66;5053481;28;20053;-78
2023/05/21 03:27:01;;;;;;;15.15;9.65;;;9.20;99.90;;;-148.53;100.00;63986.66;5050651;28;20037;-78
2023/05/21 03:29:27;;;;;;;13.95;10.13;;;9.20;99.90;;;-148.53;100.00;63986.66;5058085;28;20479;-79
2023/05/21 03:31:54;;;;;;;14.90;9.85;;;9.30;99.90;;;-148.53;100.00;63986.66;5053758;28;20804;-78
2023/05/21 03:34:20;;;;;;;15.18;9.75;;;9.50;99.90;;;-148.53;100.00;63986.66;5067151;28;20029;-78
2023/05/21 03:36:48;;;;;;;14.27;9.80;;;9.60;99.90;;;-148.53;100.00;63986.66;5050922;28;20051;-79
2023/05/21 03:39:16;;;;;;;14.85;9.77;;;9.60;99.90;;;-148.53;100.00;63986.66;5050923;28;20028;-79
2023/05/21 03:41:42;;;;;;;14.63;9.45;;;9.60;99.90;;;-148.53;100.00;63986.66;5072754;28;20036;-78
2023/05/21 03:44:13;;;;;;;12.60;9.45;;;9.70;99.90;;;-148.53;100.00;63986.66;5056924;28;20086;-79
2023/05/21 03:46:53;;;;;;;14.68;9.45;;;9.70;99.90;;;-148.53;100.00;63986.66;5053192;28;20089;-79
2023/05/21 03:49:26;;;;;;;14.88;9.57;;;9.70;99.90;;;-148.53;100.00;63986.66;5067516;28;20495;-79
2023/05/21 03:51:54;;;;;;;;;;;9.70;99.90;;;-148.53;100.00;63986.66;5052424;28;20064;-79
2023/05/21 03:54:20;;;;;;;14.23;9.68;;;9.70;99.90;;;-148.53;100.00;63986.66;5060378;28;19918;-79
2023/05/21 03:56:47;;;;;;;13.95;9.52;;;9.70;99.90;;;-148.53;100.00;63986.66;5050875;28;20055;-79
2023/05/21 03:59:14;;;;;;;15.73;10.13;;;9.80;99.90;;;-148.53;100.00;63986.66;5052426;28;20484;-78
2023/05/21 04:01:41;;;;;;;16.15;9.85;;;9.90;99.90;;;-148.53;100.00;63986.66;5067593;28;20114;-78
2023/05/21 04:04:10;;;;;;;14.52;9.65;;;9.90;99.90;;;-148.53;100.00;63986.66;5059636;28;20484;-78
2023/05/21 04:06:37;;;;;;;14.80;9.80;;;10.00;99.90;;;-148.53;100.00;63986.66;5050559;28;20040;-78
2023/05/21 04:09:03;;;;;;;13.77;10.13;;;10.00;99.90;;;-148.53;100.00;63986.66;5055390;28;20473;-78
2023/05/21 04:11:30;;;;;;;14.88;9.50;;;10.20;99.90;;;-148.53;100.00;63986.66;5050818;28;20040;-78
2023/05/21 04:13:55;;;;;;;13.07;9.25;;;10.20;99.90;;;-148.53;100.00;63986.66;5064791;28;20373;-78
2023/05/21 04:16:23;;;;;;;13.90;9.60;;;10.20;99.90;;;-148.53;100.00;63986.66;5050952;28;20024;-78
2023/05/21 04:18:51;;;;;;;15.88;9.60;;;10.30;99.90;;;-148.53;100.00;63986.66;5051242;28;20706;-78
2023/05/21 04:21:16;;;;;;;14.18;10.05;;;10.40;99.90;;;-148.53;100.00;63986.66;5049976;28;20500;-78
2023/05/21 04:23:43;;;;;;;14.50;9.45;;;10.40;99.90;;;-148.53;100.00;63986.66;5072389;28;20033;-78
2023/05/21 04:26:18;;;;;;;15.00;9.40;;;10.60;99.90;;;-148.53;100.00;63986.66;5060610;28;20040;-77
2023/05/21 04:28:45;;;;;;;13.75;9.90;;;10.60;99.90;;;-148.53;100.00;63986.66;5037574;28;20032;-76
2023/05/21 04:31:12;;;;;;;13.90;9.55;;;10.70;99.90;;;-148.53;100.00;63986.66;5046675;28;20041;-77
2023/05/21 04:33:40;;;;;;;14.38;9.75;;;10.80;99.90;;;-148.53;100.00;63986.66;5053872;28;20041;-77
2023/05/21 04:36:09;;;;;;;16.23;9.48;;;10.90;99.90;;;-148.53;100.00;63986.66;5054130;28;20043;-77
2023/05/21 04:38:35;;;;;;;14.95;9.40;;;11.00;99.90;;;-148.53;100.00;63986.66;5070536;28;20039;-83
2023/05/21 04:41:02;;;;;;;13.25;8.90;;;11.20;99.90;;;-148.53;100.00;63986.66;5054949;28;20138;-77
2023/05/21 04:43:28;;;;;;;15.25;9.52;;;11.30;99.90;;;-148.53;100.00;63986.66;5057770;28;20032;-77
2023/05/21 04:45:56;;;;;;;13.45;9.65;;;11.50;99.90;;;-148.53;100.00;63986.66;5052901;28;20064;-78
2023/05/21 04:48:25;;;;;;;13.52;9.07;;;11.70;99.90;;;-148.53;100.00;63986.66;5053296;28;20530;-78
2023/05/21 04:50:52;;;;;;;14.85;8.55;;;11.80;99.90;;;-148.53;100.00;63986.66;5059230;28;20029;-78
2023/05/21 04:53:18;;;;;;;11.10;7.82;;;12.10;99.90;;;-148.53;100.00;63986.66;5053389;28;20052;-79
2023/05/21 04:55:45;;;;;;;13.98;7.97;;;12.20;99.90;;;-148.53;100.00;63986.66;5054533;28;20144;-79
2023/05/21 04:58:12;;;;;;;10.35;7.75;;;12.50;99.90;;;-148.53;100.00;63986.66;5068109;28;20068;-79
2023/05/21 05:00:39;;;;;;;11.02;8.05;;;12.70;99.90;;;-148.53;100.00;63986.66;5090099;28;20049;-79
2023/05/21 05:03:05;;;;;;;11.33;8.20;;;12.90;99.90;;;-148.53;100.00;63986.66;5047502;28;20437;-79
2023/05/21 05:05:30;;;;;;;11.57;7.80;;;13.10;99.90;;;-148.53;100.00;63986.66;5091078;28;20274;-78
2023/05/21 05:07:57;;;;;;;11.75;8.30;;;13.30;99.90;;;-148.53;100.00;63986.66;5053734;28;20036;-80
2023/05/21 05:10:22;;;;;;;12.07;7.75;;;13.50;99.90;;;-148.53;100.00;63986.66;5059056;28;20033;-81
2023/05/21 05:12:48;;;;;;;10.02;7.57;;;13.60;99.90;;;-148.53;100.00;63986.66;5070216;28;20033;-81
2023/05/21 05:15:14;;;;;;;10.85;7.72;;;13.70;99.90;;;-148.53;100.00;63986.66;5056653;28;20481;-82
2023/05/21 05:17:40;;;;;;;12.98;8.10;;;13.70;99.90;;;-148.53;100.00;63986.66;5064305;28;20554;-80
2023/05/21 05:20:07;;;;;;;11.45;7.18;;;13.90;99.90;;;-148.53;100.00;63986.66;5054012;28;20041;-81
2023/05/21 05:22:33;;;;;;;12.52;7.60;;;13.90;99.90;;;-148.53;100.00;63986.66;5053170;28;20029;-79
2023/05/21 05:24:59;;;;;;;11.40;7.72;;;14.00;99.90;;;-148.53;100.00;63986.66;5059211;28;20032;-82
2023/05/21 05:27:25;;;;;;;11.05;7.88;;;14.00;99.90;;;-148.53;100.00;63986.66;5059360;28;20082;-85
2023/05/21 05:29:50;;;;;;;11.45;7.22;;;14.10;99.90;;;-148.53;100.00;63986.66;5075711;28;20094;-82
2023/05/21 05:32:16;;;;;;;10.55;7.15;;;14.20;99.90;;;-148.53;100.00;63986.66;5059056;28;20041;-84
2023/05/21 05:34:45;;;;;;;10.45;7.55;;;14.30;99.90;;;-148.53;100.00;63986.66;5069858;28;20075;-80
2023/05/21 05:37:10;;;;;;;12.65;7.60;;;14.40;99.90;;;-148.53;100.00;63986.66;5053264;28;20053;-81
2023/05/21 05:39:36;;;;;;;10.90;7.72;;;14.50;99.90;;;-148.53;100.00;63986.66;5076431;28;20037;-83
2023/05/21 05:42:03;;;;;;;12.50;7.50;;;14.60;99.90;;;-148.53;100.00;63986.66;5067262;28;20041;-81
2023/05/21 05:44:29;;;;;;;11.93;7.70;;;14.70;99.90;;;-148.53;100.00;63986.66;5053410;28;20117;-81
2023/05/21 05:46:54;;;;;;;9.63;7.18;;;14.80;99.90;;;-148.53;100.00;63986.66;5057631;28;20040;-81
2023/05/21 05:49:20;;;;;;;10.80;7.45;;;15.00;99.90;;;-148.53;100.00;63986.66;5060231;28;20040;-82
2023/05/21 05:51:46;;;;;;;10.80;7.90;;;15.20;99.90;;;-148.53;100.00;63986.66;5059095;28;20424;-84
2023/05/21 05:54:12;;;;;;;12.38;8.00;;;15.30;99.90;;;-148.53;100.00;63986.66;5086063;28;20048;-79
2023/05/21 05:56:38;;;;;;;12.40;7.78;;;15.40;99.90;;;-148.53;100.00;63986.66;5056298;28;20766;-78
2023/05/21 05:59:04;;;;;;;12.93;8.13;;;15.50;99.90;;;-148.53;100.00;63986.66;5054078;28;20491;-79
2023/05/21 06:01:33;;;;;;;11.10;7.78;;;15.60;99.90;;;-148.53;100.00;63986.66;5069474;28;20028;-79
2023/05/21 06:03:59;;;;;;;12.57;8.18;;;15.70;99.90;;;-148.53;100.00;63986.66;5051742;28;20087;-78
2023/05/21 06:06:25;;;;;;;10.57;7.95;;;15.80;99.90;;;-148.53;100.00;63986.66;5051841;28;20025;-79
2023/05/21 06:08:52;;;;;;;12.60;8.68;;;15.80;99.90;;;-148.53;100.00;63986.66;5037175;28;20393;-79
2023/05/21 06:11:20;;;;;;;12.35;8.60;;;15.90;99.90;;;-148.53;100.00;63986.66;5056961;28;20047;-79
2023/05/21 06:13:46;;;;;;;12.63;8.60;;;16.10;99.90;;;-148.53;100.00;63986.66;5061874;28;20511;-80
2023/05/21 06:16:14;;;;;;;11.82;8.90;;;16.10;99.90;;;-148.53;100.00;63986.66;5051413;28;20091;-82
2023/05/21 06:18:40;;;;;;;13.18;9.50;;;16.20;99.90;;;-148.53;100.00;63986.66;5051394;28;20480;-81
2023/05/21 06:21:06;;;;;;;11.63;8.93;;;16.30;99.90;;;-148.53;100.00;63986.66;5090393;28;20040;-81
2023/05/21 06:23:34;;;;;;;12.20;8.52;;;16.40;99.90;;;-148.53;100.00;63986.66;5051542;28;20041;-81
2023/05/21 06:26:00;;;;;;;11.73;8.43;;;16.50;99.90;;;-148.53;100.00;63986.66;5051537;28;20041;-81
2023/05/21 06:28:26;;;;;;;11.55;8.45;;;16.70;99.90;;;-148.53;100.00;63986.66;5042491;28;20109;-80
2023/05/21 06:30:53;;;;;;;12.50;8.73;;;16.90;99.90;;;-148.53;100.00;63986.66;5083220;28;20041;-81
2023/05/21 06:33:19;;;;;;;12.90;8.80;;;17.20;99.90;;;-148.53;100.00;63986.66;5071761;28;20037;-81
2023/05/21 06:35:47;;;;;;;13.63;8.93;;;17.40;99.90;;;-148.53;100.00;63986.66;5064642;28;20060;-82
2023/05/21 06:38:13;;;;;;;12.55;9.48;;;17.50;99.90;;;-148.53;100.00;63986.66;5076112;28;20523;-83
2023/05/21 06:40:39;;;;;;;13.52;9.77;;;17.50;99.90;;;-148.53;100.00;63986.66;5069940;28;20077;-83
2023/05/21 06:43:06;;;;;;;12.30;9.32;;;17.60;99.90;;;-148.53;100.00;63986.66;5056918;28;20066;-83
2023/05/21 06:45:35;;;;;;;13.75;9.52;;;17.70;99.90;;;-148.53;100.00;63986.66;5051779;28;20033;-85
2023/05/21 06:48:08;;;;;;;11.48;9.43;;;18.00;99.90;;;-148.53;100.00;63986.66;5048816;28;20040;-83
2023/05/21 06:50:34;;;;;;;13.10;9.77;;;18.10;99.90;;;-148.53;100.00;63986.66;5065948;28;20029;-86
2023/05/21 06:53:00;;;;;;;14.10;10.05;;;18.20;99.90;;;-148.53;100.00;63986.66;5060882;28;20064;-85
2023/05/21 06:55:27;;;;;;;13.65;10.02;;;18.40;99.90;;;-148.53;100.00;63986.66;5053945;28;20039;-86
2023/05/21 06:58:11;;;;;;;15.30;10.27;;;18.50;99.90;;;-148.53;100.00;63986.66;5068638;28;20396;-84
2023/05/21 07:00:37;;;;;;;13.18;10.20;;;18.70;99.90;;;-148.53;100.00;63986.66;5074073;28;20041;-84
2023/05/21 07:03:03;;;;;;;14.15;10.60;;;18.90;99.90;;;-148.53;100.00;63986.66;5053026;28;20527;-83
2023/05/21 07:05:29;;;;;;;15.18;11.35;;;18.90;99.90;;;-148.53;100.00;63986.66;5066222;28;20139;-82
2023/05/21 07:07:55;;;;;;;14.15;10.93;;;18.90;99.90;;;-148.53;100.00;63986.66;5043813;28;20466;-81
2023/05/21 07:10:21;;;;;;;12.82;10.75;;;19.00;99.90;;;-148.53;100.00;63986.66;5072739;28;20040;-83
2023/05/21 07:12:46;;;;;;;15.77;12.25;;;19.10;99.90;;;-148.53;100.00;63986.66;5057385;28;20050;-83
2023/05/21 07:15:12;;;;;;;16.40;12.13;;;19.10;99.90;;;-148.53;100.00;63986.66;5070660;28;20028;-85
2023/05/21 07:17:38;;;;;;;16.17;12.18;;;19.30;99.90;;;-148.53;100.00;63986.66;5055109;28;20117;-84
2023/05/21 07:20:07;;;;;;;18.70;12.38;;;19.30;99.90;;;-148.53;100.00;63986.66;5054682;28;20079;-83
2023/05/21 07:22:41;;;;;;;14.63;11.27;;;19.30;99.90;;;-148.53;100.00;63986.66;5068564;28;20029;-83
2023/05/21 07:25:08;;;;;;;15.35;12.07;;;19.40;99.90;;;-148.53;100.00;63986.66;5058544;28;20024;-83
2023/05/21 07:27:34;;;;;;;16.35;13.00;;;19.50;99.90;;;-148.53;100.00;63986.66;5051104;28;20128;-81
2023/05/21 07:30:00;;;;;;;17.30;12.88;;;19.60;99.90;;;-148.53;100.00;63986.66;5042247;28;20044;-82
2023/05/21 07:32:27;;;;;;;18.10;13.10;;;19.50;99.90;;;-148.53;100.00;63986.66;5072556;28;20037;-81
2023/05/21 07:34:54;;;;;;;;;;;19.60;99.90;;;-148.53;100.00;63986.66;5067949;28;20126;-83
2023/05/21 07:37:20;;;;;;;17.60;13.60;;;19.60;99.90;;;-148.53;100.00;63986.66;5088693;28;20050;-82
2023/05/21 07:39:46;;;;;;;17.67;13.60;;;19.60;99.90;;;-148.53;100.00;63986.66;5066047;28;20078;-84
2023/05/21 07:42:12;;;;;;;17.17;12.80;;;19.60;99.90;;;-148.53;100.00;63986.66;5053442;28;20036;-83
2023/05/21 07:44:38;;;;;;;14.88;12.48;;;19.90;99.90;;;-148.53;100.00;63986.66;5052619;28;20041;-80
2023/05/21 07:47:04;;;;;;;18.35;14.88;;;;;;;-148.53;100.00;63986.66;5064503;28;20029;-80
2023/05/21 07:49:30;;;;;;;17.60;13.77;;;;;;;-148.53;100.00;63986.66;5063502;28;20021;-80
2023/05/21 07:51:57;;;;;;;18.80;13.40;;;;;;;-148.53;100.00;63986.66;5050266;28;20037;-81
2023/05/21 07:54:24;;;;;;;20.48;14.43;;;;;;;-148.53;100.00;63986.66;5050507;28;20029;-82
2023/05/21 07:56:50;;;;;;;18.20;13.85;;;;;;;-148.53;100.00;63986.66;5055548;28;20108;-84
2023/05/21 07:59:38;;;;;;;18.93;14.73;;;20.10;99.90;;;-148.53;100.00;63986.66;5061166;28;20096;-82
2023/05/21 08:02:05;;;;;;;18.98;14.40;;;21.10;99.90;;;-148.53;100.00;63986.66;5053009;28;20312;-82
2023/05/21 08:04:30;;;;;;;17.70;14.50;;;21.10;99.90;;;-148.53;100.00;63986.66;5055307;28;20052;-84
2023/05/21 08:06:57;;;;;;;19.58;14.88;;;;;;;-148.53;100.00;63986.66;5042449;28;20029;-83
2023/05/21 08:09:23;;;;;;;17.13;14.55;;;;;;;-148.53;100.00;63986.66;5071834;28;20032;-84
2023/05/21 08:11:50;;;;;;;18.48;14.57;;;;;;;-148.53;100.00;63986.66;5046581;28;20041;-85
2023/05/21 08:14:16;;;;;;;17.05;14.40;;;;;;;-148.53;100.00;63986.66;5058204;28;20040;-84
2023/05/21 08:16:43;;;;;;;19.23;15.00;;;;;;;-148.53;100.00;63986.66;5054580;28;20035;-83
2023/05/21 08:19:10;;;;;;;22.65;16.30;;;;;;;-148.53;100.00;63986.66;5049469;28;20507;-82
2023/05/21 08:21:36;;;;;;;21.10;15.50;;;;;;;-148.53;100.00;63986.66;5054111;28;20609;-81
2023/05/21 08:24:03;;;;;;;19.55;15.35;;;;;;;-148.53;100.00;63986.66;5037588;28;20388;-82
2023/05/21 08:26:29;;;;;;;20.15;15.32;;;;;;;-148.53;100.00;63986.66;5054994;28;20389;-80
2023/05/21 08:28:56;;;;;;;19.02;15.63;;;;;;;-148.53;100.00;63986.66;5087278;28;20451;-83
2023/05/21 08:31:22;;;;;;;22.02;15.45;;;;;;;-148.53;100.00;63986.66;5060369;28;20040;-82
2023/05/21 08:33:51;;;;;;;;;;;;;;;-148.53;100.00;63986.66;5060354;28;20108;-83
2023/05/21 08:36:20;;;;;;;18.45;14.55;;;;;;;-148.53;100.00;63986.66;5038391;28;20395;-83
2023/05/21 08:38:53;;;;;;;18.75;15.38;;;;;;;-148.53;100.00;63986.66;5054040;28;20449;-82
2023/05/21 08:41:34;;;;;;;18.52;15.98;;;;;;;-148.53;100.00;63986.66;5064930;28;20056;-82
2023/05/21 08:44:01;;;;;;;18.92;14.52;;;;;;;-148.53;100.00;63986.66;5054127;28;20175;-82
2023/05/21 08:46:34;;;;;;;18.55;15.65;;;;;;;-148.53;100.00;63986.66;5080505;28;20037;-82
2023/05/21 08:49:02;;;;;;;17.48;14.50;;;;;;;-148.53;100.00;63986.66;5065366;28;20059;-82
2023/05/21 08:51:30;;;;;;;19.98;16.02;;;;;;;-148.53;100.00;63986.66;5062621;28;20493;-81
2023/05/21 08:53:56;;;;;;;;;;;;;;;-148.53;100.00;63986.66;5059843;28;20443;-82
2023/05/21 08:56:23;;;;;;;18.25;14.85;;;;;;;-148.53;100.00;63986.66;5053926;28;20019;-82
2023/05/21 08:58:54;;;;;;;19.63;15.80;;;;;;;-148.53;100.00;63986.66;5063873;28;20029;-82
2023/05/21 09:01:25;;;;;;;18.77;14.73;;;;;;;-148.53;100.00;63986.66;5057555;28;20511;-83
2023/05/21 09:03:58;;;;;;;18.33;14.63;;;;;;;-148.53;100.00;63986.66;5057864;28;20064;-83
2023/05/21 09:06:27;;;;;;;18.02;14.95;;;;;;;-148.53;100.00;63986.66;5054203;28;20119;-81
2023/05/21 09:09:03;;;;;;;18.00;15.25;;;;;;;-148.53;100.00;63986.66;5037233;28;20040;-81
2023/05/21 09:11:37;;;;;;;18.95;14.90;;;;;;;-148.53;100.00;63986.66;5054875;28;20099;-82
2023/05/21 09:14:04;;;;;;;17.92;15.00;;;;;;;-148.53;100.00;63986.66;5061791;28;20035;-81
2023/05/21 09:16:49;;;;;;;20.55;15.65;;;;;;;-148.53;100.00;63986.66;5053867;28;20068;-80
2023/05/21 09:19:19;;;;;;;19.92;15.73;;;;;;;-148.53;100.00;63986.66;5057775;28;20036;-81
2023/05/21 09:21:45;;;;;;;17.85;14.70;;;;;;;-148.53;100.00;63986.66;5064035;28;20476;-80
2023/05/21 09:24:14;;;;;;;18.33;15.23;;;;;;;-148.53;100.00;63986.66;5056019;28;20043;-80
2023/05/21 09:26:42;;;;;;;21.75;15.55;;;;;;;-148.53;100.00;63986.66;5056322;28;20032;-80
2023/05/21 09:29:08;;;;;;;19.88;15.95;;;;;;;-148.53;100.00;63986.66;5053942;28;20037;-80
2023/05/21 09:31:35;;;;;;;16.67;14.93;;;;;;;-148.53;100.00;63986.66;5054759;28;20045;-85
2023/05/21 09:34:01;;;;;;;19.08;15.38;;;;;;;-148.53;100.00;63986.66;5057488;28;20036;-81
2023/05/21 09:36:30;;;;;;;17.73;14.95;;;;;;;-148.53;100.00;63986.66;5057119;28;20528;-81
2023/05/21 09:38:58;;;;;;;17.23;14.98;;;;;;;-148.53;100.00;63986.66;5058244;28;20028;-81
2023/05/21 09:41:35;;;;;;;17.58;14.75;;;;;;;-148.53;100.00;63986.66;5053962;28;20032;-79
2023/05/21 09:44:03;;;;;;;19.92;14.82;;;;;;;-148.53;100.00;63986.66;5054029;28;20041;-81
2023/05/21 09:46:42;;;;;;;17.75;14.88;;;;;;;-148.53;100.00;63986.66;5060286;28;20029;-83
2023/05/21 09:49:24;;;;;;;;;;;;;;;-148.53;100.00;63986.66;5060810;28;20040;-84
2023/05/21 09:51:55;;;;;;;19.33;16.10;;;;;;;-148.53;100.00;63986.66;5066064;28;20371;-84
2023/05/21 09:54:23;;;;;;;18.02;14.73;;;;;;;-148.53;100.00;63986.66;5058124;28;20047;-85
2023/05/21 09:56:53;;;;;;;15.82;13.93;;;;;;;-148.53;100.00;63986.66;5054390;28;20507;-84
2023/05/21 09:59:20;;;;;;;16.60;14.77;;;;;;;-148.53;100.00;63986.66;5054356;28;20033;-83
2023/05/21 10:01:51;;;;;;;19.10;14.82;;;;;;;-148.53;100.00;63986.66;5061543;28;20036;-85
2023/05/21 10:04:17;;;;;;;16.35;14.00;;;;;;;-148.53;100.00;63986.66;5053520;28;20044;-84
2023/05/21 10:06:46;;;;;;;18.15;15.18;;;;;;;-148.53;100.00;63986.66;5062701;28;20060;-84
2023/05/21 10:09:17;;;;;;;18.40;15.10;;;;;;;-148.53;100.00;63986.66;5064674;28;20434;-84